createdAt,value
2022-11-24T00:01:07.796Z,8.28
2022-11-24T00:03:35.683Z,8.33
2022-11-24T00:06:05.412Z,8.33
2022-11-24T00:08:33.368Z,8.31
2022-11-24T00:11:05.238Z,8.30
2022-11-24T00:13:34.241Z,8.24
2022-11-24T00:16:12.139Z,8.25
2022-11-24T00:18:40.534Z,8.27
2022-11-24T00:21:08.722Z,8.34
2022-11-24T00:23:37.280Z,8.42
2022-11-24T00:26:07.187Z,8.41
2022-11-24T00:28:36.218Z,8.44
2022-11-24T00:31:05.701Z,8.51
2022-11-24T00:33:34.926Z,8.48
2022-11-24T00:36:02.713Z,8.59
2022-11-24T00:38:30.468Z,8.56
2022-11-24T00:40:58.221Z,8.52
2022-11-24T00:43:25.986Z,8.55
2022-11-24T00:45:53.794Z,8.51
2022-11-24T00:48:22.813Z,8.49
2022-11-24T00:50:58.547Z,8.44
2022-11-24T00:53:26.628Z,8.42
2022-11-24T00:55:54.487Z,8.56
2022-11-24T00:58:22.581Z,8.58
2022-11-24T01:00:50.679Z,8.54
2022-11-24T01:03:19.739Z,8.56
2022-11-24T01:05:47.509Z,8.59
2022-11-24T01:08:16.634Z,8.61
2022-11-24T01:10:44.388Z,8.64
2022-11-24T01:13:13.225Z,8.71
2022-11-24T01:15:41.352Z,8.72
2022-11-24T01:18:09.217Z,8.79
2022-11-24T01:20:37.691Z,8.75
2022-11-24T01:23:05.448Z,8.75
2022-11-24T01:25:34.565Z,8.71
2022-11-24T01:28:02.427Z,8.68
2022-11-24T01:30:30.241Z,8.69
2022-11-24T01:32:58.008Z,8.73
2022-11-24T01:35:25.749Z,8.69
2022-11-24T01:37:53.527Z,8.65
2022-11-24T01:40:21.761Z,8.65
2022-11-24T01:42:53.592Z,8.65
2022-11-24T01:45:40.601Z,8.64
2022-11-24T01:48:16.161Z,8.58
2022-11-24T01:50:45.131Z,8.56
2022-11-24T01:53:14.592Z,8.51
2022-11-24T01:55:42.473Z,8.48
2022-11-24T01:58:15.581Z,8.44
2022-11-24T02:00:45.915Z,8.44
2022-11-24T02:03:18.555Z,8.41
2022-11-24T02:05:51.291Z,8.40
2022-11-24T02:08:23.946Z,8.37
2022-11-24T02:10:51.733Z,8.38
2022-11-24T02:13:21.767Z,8.33
2022-11-24T02:15:49.709Z,8.31
2022-11-24T02:18:17.473Z,8.31
2022-11-24T02:20:45.256Z,8.30
2022-11-24T02:23:19.642Z,8.33
2022-11-24T02:25:58.420Z,8.24
2022-11-24T02:28:29.893Z,8.25
2022-11-24T02:30:58.261Z,8.23
2022-11-24T02:33:26.351Z,8.24
2022-11-24T02:35:54.408Z,8.23
2022-11-24T02:38:31.097Z,8.27
2022-11-24T02:41:01.808Z,8.23
2022-11-24T02:43:35.563Z,8.28
2022-11-24T02:46:03.406Z,8.34
2022-11-24T02:48:31.369Z,8.37
2022-11-24T02:50:59.105Z,8.42
2022-11-24T02:53:26.909Z,8.52
2022-11-24T02:55:54.695Z,8.58
2022-11-24T02:58:22.621Z,8.55
2022-11-24T03:00:54.212Z,8.52
2022-11-24T03:03:22.077Z,8.51
2022-11-24T03:05:49.916Z,8.48
2022-11-24T03:08:17.738Z,8.45
2022-11-24T03:10:45.867Z,8.47
2022-11-24T03:13:13.664Z,8.48
2022-11-24T03:15:41.549Z,8.42
2022-11-24T03:18:10.691Z,8.44
2022-11-24T03:20:38.584Z,8.49
2022-11-24T03:23:06.452Z,8.44
2022-11-24T03:25:34.285Z,8.42
2022-11-24T03:28:02.143Z,8.41
2022-11-24T03:30:30.329Z,8.47
2022-11-24T03:32:58.090Z,8.47
2022-11-24T03:35:27.275Z,8.47
2022-11-24T03:37:55.048Z,8.51
2022-11-24T03:40:22.815Z,8.55
2022-11-24T03:42:50.605Z,8.64
2022-11-24T03:48:08.195Z,8.76
2022-11-24T03:50:37.340Z,8.79
2022-11-24T03:53:05.218Z,8.85
2022-11-24T03:55:33.071Z,8.88
2022-11-24T03:58:00.818Z,8.95
2022-11-24T04:00:28.806Z,9.00
2022-11-24T04:02:56.563Z,9.00
2022-11-24T04:05:25.217Z,9.03
2022-11-24T04:07:56.446Z,9.06
2022-11-24T04:10:24.276Z,9.00
2022-11-24T04:12:51.053Z,8.99
2022-11-24T04:15:20.439Z,9.05
2022-11-24T04:17:48.661Z,9.05
2022-11-24T04:20:17.552Z,9.00
2022-11-24T04:22:45.295Z,8.99
2022-11-24T04:25:17.351Z,8.93
2022-11-24T04:27:45.206Z,8.89
2022-11-24T04:30:13.310Z,8.85
2022-11-24T04:32:41.058Z,8.79
2022-11-24T04:35:09.332Z,8.75
2022-11-24T04:37:37.188Z,8.68
2022-11-24T04:40:05.976Z,8.64
2022-11-24T04:42:35.479Z,8.59
2022-11-24T04:45:03.524Z,8.58
2022-11-24T04:47:31.348Z,8.54
2022-11-24T04:49:59.187Z,8.44
2022-11-24T04:52:27.265Z,8.45
2022-11-24T04:54:54.970Z,8.41
2022-11-24T04:57:25.074Z,8.41
2022-11-24T04:59:55.258Z,8.64
2022-11-24T05:02:23.425Z,8.75
2022-11-24T05:04:51.716Z,8.75
2022-11-24T05:07:20.192Z,8.92
2022-11-24T05:10:06.191Z,8.85
2022-11-24T05:12:34.093Z,8.76
2022-11-24T05:15:05.781Z,8.75
2022-11-24T05:17:35.738Z,8.47
2022-11-24T05:20:03.736Z,8.35
2022-11-24T05:22:31.614Z,8.23
2022-11-24T05:24:59.435Z,8.28
2022-11-24T05:27:27.379Z,8.35
2022-11-24T05:29:55.205Z,8.40
2022-11-24T05:32:24.603Z,8.45
2022-11-24T05:34:53.809Z,8.38
2022-11-24T05:37:21.513Z,8.38
2022-11-24T05:39:49.314Z,8.17
2022-11-24T05:42:34.691Z,8.04
2022-11-24T05:45:02.483Z,7.89
2022-11-24T05:47:32.045Z,8.10
2022-11-24T05:49:59.792Z,8.00
2022-11-24T05:52:27.551Z,7.97
2022-11-24T05:54:55.339Z,8.38
2022-11-24T05:57:23.143Z,8.10
2022-11-24T05:59:50.927Z,8.10
2022-11-24T06:02:19.236Z,8.08
2022-11-24T06:04:48.487Z,8.07
2022-11-24T06:07:16.612Z,8.08
2022-11-24T06:09:44.431Z,8.00
2022-11-24T06:12:13.575Z,7.96
2022-11-24T06:14:41.576Z,7.87
2022-11-24T06:17:11.543Z,8.00
2022-11-24T06:19:42.088Z,7.66
2022-11-24T06:22:11.557Z,7.42
2022-11-24T06:24:39.388Z,7.25
2022-11-24T06:27:07.681Z,7.16
2022-11-24T06:29:35.484Z,7.11
2022-11-24T06:32:03.330Z,7.04
2022-11-24T06:34:31.304Z,7.07
2022-11-24T06:36:59.132Z,7.01
2022-11-24T06:39:28.273Z,6.97
2022-11-24T06:41:56.179Z,6.94
2022-11-24T06:44:23.933Z,6.95
2022-11-24T06:46:51.722Z,7.02
2022-11-24T06:49:19.565Z,7.02
2022-11-24T06:51:47.650Z,6.98
2022-11-24T06:54:17.099Z,7.02
2022-11-24T06:56:46.215Z,7.11
2022-11-24T06:59:17.890Z,7.09
2022-11-24T07:01:46.850Z,7.16
2022-11-24T07:04:15.048Z,7.24
2022-11-24T07:06:43.248Z,7.26
2022-11-24T07:09:12.695Z,7.32
2022-11-24T07:11:41.090Z,7.39
2022-11-24T07:14:10.280Z,7.41
2022-11-24T07:16:38.435Z,7.41
2022-11-24T07:19:06.282Z,7.42
2022-11-24T07:21:34.130Z,7.48
2022-11-24T07:24:02.019Z,7.48
2022-11-24T07:26:29.908Z,7.55
2022-11-24T07:28:57.939Z,7.61
2022-11-24T07:31:27.258Z,7.55
2022-11-24T07:33:55.943Z,7.55
2022-11-24T07:36:24.792Z,7.53
2022-11-24T07:38:52.704Z,7.56
2022-11-24T07:41:21.365Z,7.58
2022-11-24T07:43:50.622Z,7.59
2022-11-24T07:46:20.033Z,7.61
2022-11-24T07:48:49.305Z,7.67
2022-11-24T07:51:17.320Z,7.73
2022-11-24T07:53:46.280Z,7.70
2022-11-24T07:56:14.049Z,7.69
2022-11-24T07:58:41.817Z,7.73
2022-11-24T08:01:12.208Z,7.77
2022-11-24T08:03:40.412Z,7.89
2022-11-24T08:06:30.320Z,7.90
2022-11-24T08:08:58.583Z,8.00
2022-11-24T08:11:27.002Z,8.00
2022-11-24T08:13:55.012Z,7.98
2022-11-24T08:16:23.272Z,8.03
2022-11-24T08:18:52.312Z,8.10
2022-11-24T08:21:23.142Z,8.08
2022-11-24T08:23:51.227Z,8.08
2022-11-24T08:26:19.400Z,8.10
2022-11-24T08:28:48.384Z,8.14
2022-11-24T08:31:19.556Z,8.14
2022-11-24T08:33:47.899Z,8.18
2022-11-24T08:36:17.786Z,8.17
2022-11-24T08:38:48.893Z,8.27
2022-11-24T08:41:18.129Z,8.25
2022-11-24T08:43:45.965Z,8.34
2022-11-24T08:46:17.096Z,8.48
2022-11-24T08:48:45.373Z,8.52
2022-11-24T08:51:15.135Z,8.51
2022-11-24T08:53:43.731Z,8.52
2022-11-24T08:56:14.280Z,8.93
2022-11-24T08:58:43.008Z,9.71
2022-11-24T09:01:13.065Z,10.91
2022-11-24T09:03:46.570Z,11.42
2022-11-24T09:06:18.387Z,11.43
2022-11-24T09:08:46.219Z,11.69
2022-11-24T09:11:17.239Z,12.06
2022-11-24T09:13:45.775Z,12.60
2022-11-24T09:16:15.672Z,12.99
2022-11-24T09:18:43.722Z,12.84
2022-11-24T09:21:13.748Z,13.13
2022-11-24T09:23:42.174Z,12.24
2022-11-24T09:26:11.658Z,12.69
2022-11-24T09:28:40.922Z,12.64
2022-11-24T09:31:09.630Z,12.69
2022-11-24T09:33:38.387Z,12.75
2022-11-24T09:36:07.078Z,13.30
2022-11-24T09:38:35.360Z,12.14
2022-11-24T09:41:39.997Z,13.06
2022-11-24T09:44:18.927Z,13.76
2022-11-24T09:46:58.769Z,13.02
2022-11-24T09:49:34.371Z,13.74
2022-11-24T09:52:08.814Z,14.15
2022-11-24T09:54:37.582Z,14.14
2022-11-24T09:57:08.284Z,13.77
2022-11-24T09:59:37.711Z,14.14
2022-11-24T10:02:13.101Z,14.59
2022-11-24T10:04:44.056Z,15.43
2022-11-24T10:07:20.159Z,14.82
2022-11-24T10:09:57.615Z,14.22
2022-11-24T10:12:37.371Z,14.35
2022-11-24T10:15:29.600Z,14.86
2022-11-24T10:18:17.246Z,15.10
2022-11-24T10:20:55.793Z,14.96
2022-11-24T10:23:43.705Z,15.27
2022-11-24T10:26:18.953Z,15.11
2022-11-24T10:28:52.798Z,15.74
2022-11-24T10:31:30.480Z,15.51
2022-11-24T10:34:01.657Z,15.19
2022-11-24T10:36:38.549Z,15.57
2022-11-24T10:39:14.527Z,15.48
2022-11-24T10:41:50.472Z,15.24
2022-11-24T10:44:18.282Z,15.44
2022-11-24T10:46:47.495Z,15.72
2022-11-24T10:49:18.109Z,15.31
2022-11-24T10:51:53.887Z,15.08
2022-11-24T10:54:23.596Z,15.68
2022-11-24T10:56:53.042Z,15.33
2022-11-24T10:59:39.372Z,14.89
2022-11-24T11:02:33.946Z,15.19
2022-11-24T11:05:28.770Z,15.46
2022-11-24T11:08:17.088Z,15.53
2022-11-24T11:10:46.177Z,14.85
2022-11-24T11:13:25.013Z,15.38
2022-11-24T11:15:52.969Z,15.46
2022-11-24T11:18:23.210Z,15.06
2022-11-24T11:20:53.267Z,15.24
2022-11-24T11:23:26.433Z,15.88
2022-11-24T11:26:19.030Z,15.65
2022-11-24T11:31:14.724Z,15.11
2022-11-24T11:34:48.880Z,14.95
2022-11-24T11:37:18.443Z,14.77
2022-11-24T11:39:49.270Z,14.97
2022-11-24T11:43:00.245Z,15.28
2022-11-24T11:45:17.361Z,15.30
2022-11-24T11:47:50.899Z,15.46
2022-11-24T11:50:26.534Z,15.68
2022-11-24T11:53:10.403Z,16.01
2022-11-24T11:55:50.950Z,15.74
2022-11-24T11:58:50.048Z,15.68
2022-11-24T12:01:27.350Z,14.66
2022-11-24T12:04:02.707Z,15.13
2022-11-24T12:06:51.335Z,15.04
2022-11-24T12:09:34.797Z,15.13
2022-11-24T12:12:18.753Z,14.72
2022-11-24T12:14:57.240Z,14.18
2022-11-24T12:17:35.791Z,14.92
2022-11-24T12:20:17.778Z,14.75
2022-11-24T12:22:54.006Z,14.69
2022-11-24T12:25:27.921Z,15.26
2022-11-24T12:28:06.912Z,14.73
2022-11-24T12:30:41.504Z,14.90
2022-11-24T12:33:38.487Z,14.82
2022-11-24T12:36:14.834Z,14.72
2022-11-24T12:38:55.206Z,15.00
2022-11-24T12:41:43.974Z,15.11
2022-11-24T12:44:28.052Z,15.06
2022-11-24T12:47:03.884Z,15.30
2022-11-24T12:49:38.255Z,14.82
2022-11-24T12:52:16.478Z,14.07
2022-11-24T12:54:45.664Z,13.77
2022-11-24T12:57:19.725Z,13.25
2022-11-24T12:59:53.912Z,12.85
2022-11-24T13:02:29.303Z,12.55
2022-11-24T13:05:02.038Z,12.34
2022-11-24T13:07:40.705Z,12.16
2022-11-24T13:10:54.315Z,11.96
2022-11-24T13:13:18.384Z,11.87
2022-11-24T13:16:35.034Z,11.78
2022-11-24T13:19:03.254Z,11.61
2022-11-24T13:21:47.135Z,11.62
2022-11-24T13:24:30.673Z,11.61
2022-11-24T13:27:40.960Z,11.65
2022-11-24T13:30:54.266Z,11.59
2022-11-24T13:33:31.846Z,11.55
2022-11-24T13:36:29.818Z,11.49
2022-11-24T13:38:58.639Z,11.46
2022-11-24T13:42:43.600Z,11.48
2022-11-24T13:45:02.910Z,11.48
2022-11-24T13:47:39.923Z,11.42
2022-11-24T13:50:10.350Z,11.36
2022-11-24T13:52:47.393Z,11.32
2022-11-24T13:55:29.300Z,11.24
2022-11-24T13:58:01.491Z,11.07
2022-11-24T14:00:33.946Z,11.01
2022-11-24T14:03:05.333Z,11.06
2022-11-24T14:05:37.987Z,11.11
2022-11-24T14:08:08.303Z,11.07
2022-11-24T14:10:38.610Z,11.00
2022-11-24T14:13:29.740Z,11.00
2022-11-24T14:16:04.079Z,11.00
2022-11-24T14:18:32.856Z,11.04
2022-11-24T14:21:02.623Z,10.97
2022-11-24T14:23:30.462Z,10.99
2022-11-24T14:25:58.611Z,10.94
2022-11-24T14:28:27.637Z,10.91
2022-11-24T14:31:09.412Z,10.89
2022-11-24T14:33:37.500Z,10.85
2022-11-24T14:36:06.003Z,10.84
2022-11-24T14:38:34.916Z,10.81
2022-11-24T14:41:16.269Z,10.69
2022-11-24T14:43:47.212Z,10.67
2022-11-24T14:46:21.238Z,10.63
2022-11-24T14:48:50.587Z,10.61
2022-11-24T14:51:21.515Z,10.66
2022-11-24T14:53:52.162Z,10.56
2022-11-24T14:56:25.584Z,10.49
2022-11-24T14:58:54.538Z,10.42
2022-11-24T15:01:32.494Z,10.35
2022-11-24T15:04:46.193Z,10.26
2022-11-24T15:07:14.894Z,10.13
2022-11-24T15:09:51.630Z,10.09
2022-11-24T15:12:28.698Z,10.05
2022-11-24T15:14:59.234Z,9.99
2022-11-24T15:17:30.765Z,9.98
2022-11-24T15:20:01.928Z,9.92
2022-11-24T15:22:38.140Z,9.91
2022-11-24T15:25:28.029Z,9.91
2022-11-24T15:27:56.198Z,9.79
2022-11-24T15:30:24.312Z,9.82
2022-11-24T15:32:55.242Z,9.75
2022-11-24T15:35:23.888Z,9.78
2022-11-24T15:37:52.389Z,9.68
2022-11-24T15:40:20.420Z,9.67
2022-11-24T15:42:52.482Z,9.58
2022-11-24T15:45:21.278Z,9.57
2022-11-24T15:47:50.013Z,9.48
2022-11-24T15:50:19.769Z,9.44
2022-11-24T15:52:48.646Z,9.40
2022-11-24T15:55:19.625Z,9.26
2022-11-24T15:57:47.732Z,9.23
2022-11-24T16:00:17.761Z,9.22
2022-11-24T16:02:45.677Z,9.15
2022-11-24T16:05:14.582Z,9.09
2022-11-24T16:07:48.819Z,9.06
2022-11-24T16:10:21.187Z,9.02
2022-11-24T16:12:48.948Z,8.96
2022-11-24T16:15:16.919Z,8.89
2022-11-24T16:17:44.743Z,8.89
2022-11-24T16:20:12.726Z,8.82
2022-11-24T16:22:40.601Z,8.78
2022-11-24T16:25:10.554Z,8.72
2022-11-24T16:27:38.653Z,8.71
2022-11-24T16:30:08.244Z,8.62
2022-11-24T16:32:36.211Z,8.56
2022-11-24T16:35:04.335Z,8.45
2022-11-24T16:37:32.113Z,8.47
2022-11-24T16:40:01.537Z,8.38
2022-11-24T16:42:30.858Z,8.31
2022-11-24T16:44:58.859Z,8.31
2022-11-24T16:47:26.710Z,8.27
2022-11-24T16:49:54.586Z,8.25
2022-11-24T16:52:22.479Z,8.24
2022-11-24T16:54:50.320Z,8.27
2022-11-24T16:57:18.283Z,8.31
2022-11-24T16:59:48.193Z,8.25
2022-11-24T17:02:17.033Z,8.24
2022-11-24T17:04:45.265Z,8.18
2022-11-24T17:07:13.753Z,8.20
2022-11-24T17:09:41.596Z,8.14
2022-11-24T17:12:09.396Z,8.06
2022-11-24T17:14:37.518Z,8.01
2022-11-24T17:17:06.777Z,8.01
2022-11-24T17:19:34.643Z,8.03
2022-11-24T17:22:02.456Z,7.98
2022-11-24T17:24:30.295Z,7.90
2022-11-24T17:26:58.197Z,7.89
2022-11-24T17:29:26.036Z,7.91
2022-11-24T17:31:53.870Z,7.80
2022-11-24T17:34:23.001Z,7.79
2022-11-24T17:36:50.782Z,7.82
2022-11-24T17:39:23.379Z,7.82
2022-11-24T17:41:52.697Z,7.77
2022-11-24T17:44:20.530Z,7.77
2022-11-24T17:46:48.396Z,7.77
2022-11-24T17:49:16.209Z,7.77
2022-11-24T17:51:46.343Z,7.80
2022-11-24T17:57:01.931Z,7.65
2022-11-24T17:59:29.848Z,7.63
2022-11-24T18:01:57.692Z,7.72
2022-11-24T18:04:25.517Z,7.73
2022-11-24T18:06:54.657Z,7.70
2022-11-24T18:09:22.479Z,7.65
2022-11-24T18:11:51.964Z,7.66
2022-11-24T18:14:19.897Z,7.58
2022-11-24T18:16:47.820Z,7.51
2022-11-24T18:19:15.653Z,7.49
2022-11-24T18:21:45.166Z,7.49
2022-11-24T18:24:17.509Z,7.42
2022-11-24T18:26:50.144Z,7.39
2022-11-24T18:29:17.977Z,7.38
2022-11-24T18:31:45.848Z,7.42
2022-11-24T18:34:13.669Z,7.43
2022-11-24T18:36:41.465Z,7.41
2022-11-24T18:39:09.750Z,7.48
2022-11-24T18:41:40.635Z,7.46
2022-11-24T18:44:08.748Z,7.45
2022-11-24T18:46:37.023Z,7.51
2022-11-24T18:49:05.471Z,7.52
2022-11-24T18:51:33.214Z,7.46
2022-11-24T18:54:02.959Z,7.49
2022-11-24T18:56:30.814Z,7.49
2022-11-24T18:59:00.003Z,7.46
2022-11-24T19:01:29.595Z,7.58
2022-11-24T19:03:59.504Z,7.63
2022-11-24T19:06:32.369Z,7.72
2022-11-24T19:09:02.296Z,7.77
2022-11-24T19:11:33.645Z,7.77
2022-11-24T19:14:04.197Z,7.79
2022-11-24T19:16:32.240Z,7.67
2022-11-24T19:19:01.718Z,7.69
2022-11-24T19:21:31.105Z,7.70
2022-11-24T19:24:04.517Z,7.69
2022-11-24T19:26:33.080Z,7.70
2022-11-24T19:29:02.266Z,7.69
2022-11-24T19:31:30.133Z,7.77
2022-11-24T19:33:59.618Z,7.80
2022-11-24T19:36:27.872Z,7.75
2022-11-24T19:38:57.207Z,7.83
2022-11-24T19:41:25.677Z,7.86
2022-11-24T19:43:54.653Z,7.80
2022-11-24T19:46:26.252Z,7.84
2022-11-24T19:48:56.938Z,7.86
2022-11-24T19:51:26.428Z,7.84
2022-11-24T19:53:55.078Z,7.84
2022-11-24T19:56:24.814Z,7.89
2022-11-24T19:58:54.275Z,7.91
2022-11-24T20:01:25.654Z,7.93
2022-11-24T20:03:58.786Z,7.98
2022-11-24T20:06:28.090Z,7.98
2022-11-24T20:08:55.826Z,8.03
2022-11-24T20:11:23.786Z,8.03
2022-11-24T20:13:51.812Z,8.07
2022-11-24T20:16:26.141Z,8.11
2022-11-24T20:18:57.311Z,8.10
2022-11-24T20:21:28.482Z,8.07
2022-11-24T20:23:58.619Z,8.07
2022-11-24T20:26:29.134Z,8.10
2022-11-24T20:28:58.357Z,8.24
2022-11-24T20:31:28.803Z,8.27
2022-11-24T20:33:58.312Z,8.30
2022-11-24T20:36:28.626Z,8.31
2022-11-24T20:38:57.197Z,8.28
2022-11-24T20:41:26.882Z,8.28
2022-11-24T20:43:56.409Z,8.34
2022-11-24T20:46:26.157Z,8.34
2022-11-24T20:48:55.684Z,8.38
2022-11-24T20:51:27.995Z,8.42
2022-11-24T20:53:57.617Z,8.44
2022-11-24T20:56:27.423Z,8.42
2022-11-24T20:58:56.474Z,8.45
2022-11-24T21:01:26.688Z,8.34
2022-11-24T21:03:56.701Z,8.47
2022-11-24T21:06:26.585Z,8.41
2022-11-24T21:08:55.984Z,8.47
2022-11-24T21:11:27.352Z,8.49
2022-11-24T21:13:55.352Z,8.49
2022-11-24T21:16:28.531Z,8.49
2022-11-24T21:18:58.833Z,8.52
2022-11-24T21:21:33.772Z,8.55
2022-11-24T21:24:01.765Z,8.58
2022-11-24T21:26:29.836Z,8.59
2022-11-24T21:28:58.547Z,8.55
2022-11-24T21:31:26.473Z,8.54
2022-11-24T21:33:55.315Z,8.61
2022-11-24T21:36:26.513Z,8.61
2022-11-24T21:38:57.000Z,8.66
2022-11-24T21:41:26.536Z,8.68
2022-11-24T21:43:55.810Z,8.66
2022-11-24T21:46:23.884Z,8.65
2022-11-24T21:48:51.975Z,8.75
2022-11-24T21:51:20.976Z,8.75
2022-11-24T21:53:49.011Z,8.78
2022-11-24T21:56:20.442Z,8.80
2022-11-24T21:58:49.920Z,8.83
2022-11-24T22:01:19.378Z,8.86
2022-11-24T22:03:47.427Z,8.92
2022-11-24T22:06:20.373Z,8.88
2022-11-24T22:08:49.183Z,8.96
2022-11-24T22:11:21.669Z,8.95
2022-11-24T22:13:50.496Z,8.96
2022-11-24T22:16:19.807Z,8.95
2022-11-24T22:18:47.562Z,8.89
2022-11-24T22:21:16.956Z,8.92
2022-11-24T22:23:44.608Z,8.93
2022-11-24T22:26:14.423Z,9.00
2022-11-24T22:28:44.513Z,8.95
2022-11-24T22:31:13.915Z,9.00
2022-11-24T22:33:43.579Z,9.12
2022-11-24T22:36:12.281Z,9.16
2022-11-24T22:38:40.635Z,9.22
2022-11-24T22:41:09.948Z,9.22
2022-11-24T22:43:39.708Z,9.23
2022-11-24T22:46:11.014Z,9.22
2022-11-24T22:48:39.452Z,9.24
2022-11-24T22:51:09.556Z,9.27
2022-11-24T22:53:37.862Z,9.23
2022-11-24T22:56:07.756Z,9.27
2022-11-24T22:58:35.592Z,9.33
2022-11-24T23:01:08.761Z,9.36
2022-11-24T23:03:37.034Z,9.31
2022-11-24T23:06:08.322Z,9.34
2022-11-24T23:08:37.186Z,9.38
2022-11-24T23:11:07.429Z,9.38
2022-11-24T23:13:36.969Z,9.43
2022-11-24T23:16:06.648Z,9.50
2022-11-24T23:18:36.034Z,9.55
2022-11-24T23:21:07.392Z,9.57
2022-11-24T23:23:35.693Z,9.61
2022-11-24T23:26:05.263Z,9.60
2022-11-24T23:28:33.113Z,9.64
2022-11-24T23:31:02.790Z,9.64
2022-11-24T23:33:31.489Z,9.67
2022-11-24T23:36:03.074Z,9.73
2022-11-24T23:38:32.852Z,9.70
2022-11-24T23:41:04.001Z,9.78
2022-11-24T23:43:31.844Z,9.77
2022-11-24T23:46:03.068Z,9.81
2022-11-24T23:48:31.131Z,9.81
2022-11-24T23:51:06.003Z,9.87
2022-11-24T23:53:34.603Z,9.87
2022-11-24T23:56:02.928Z,9.87
2022-11-24T23:58:31.271Z,9.92
